Terminal Aerodrome Forecast
Issued by NWS Sterling, VA

Current Version | Previous Version | Text Only | Print | Product List | Glossary Off
Versions: 1 2 3 4 5 6 7 8 9 10 11 12 13 14 15 16 17 18 19 20 21 22 23 24 25 26 27

528
FTUS41 KLWX 250858 AAA
TAFDCA
TAF AMD
KDCA 250858Z 2509/2606 VRB03KT P6SM BKN090
     FM251500 23005KT P6SM SCT060
     FM251800 24009KT P6SM VCTS BKN060CB
     FM260100 24008KT P6SM BKN060
     FM260500 25004KT P6SM BKN060=

USA.gov is the U.S. government's official web portal to all federal, state and local government web resources and services.